sensor_id;sensor_type;location;lat;lon;timestamp;P1;durP1;ratioP1;P2;durP2;ratioP2
36205;SDS011;22242;48.796;9.930;2022-10-14T00:01:01;20.20;;;11.90;;
36205;SDS011;22242;48.796;9.930;2022-10-14T00:03:31;22.50;;;13.00;;
36205;SDS011;22242;48.796;9.930;2022-10-14T00:05:58;18.92;;;12.23;;
36205;SDS011;22242;48.796;9.930;2022-10-14T00:08:25;18.65;;;12.05;;
36205;SDS011;22242;48.796;9.930;2022-10-14T00:10:52;21.42;;;12.52;;
36205;SDS011;22242;48.796;9.930;2022-10-14T00:13:20;17.95;;;12.40;;
36205;SDS011;22242;48.796;9.930;2022-10-14T00:15:47;16.77;;;10.63;;
36205;SDS011;22242;48.796;9.930;2022-10-14T00:18:16;17.85;;;10.77;;
36205;SDS011;22242;48.796;9.930;2022-10-14T00:20:43;17.95;;;10.82;;
36205;SDS011;22242;48.796;9.930;2022-10-14T00:23:19;16.27;;;10.95;;
36205;SDS011;22242;48.796;9.930;2022-10-14T00:25:46;23.20;;;11.32;;
36205;SDS011;22242;48.796;9.930;2022-10-14T00:28:12;16.50;;;11.30;;
36205;SDS011;22242;48.796;9.930;2022-10-14T00:30:41;18.63;;;10.88;;
36205;SDS011;22242;48.796;9.930;2022-10-14T00:33:07;19.98;;;11.88;;
36205;SDS011;22242;48.796;9.930;2022-10-14T00:35:34;17.77;;;10.80;;
36205;SDS011;22242;48.796;9.930;2022-10-14T00:38:01;18.33;;;11.80;;
36205;SDS011;22242;48.796;9.930;2022-10-14T00:40:28;15.02;;;9.80;;
36205;SDS011;22242;48.796;9.930;2022-10-14T00:42:55;17.80;;;11.32;;
36205;SDS011;22242;48.796;9.930;2022-10-14T00:45:23;16.00;;;9.77;;
36205;SDS011;22242;48.796;9.930;2022-10-14T00:47:54;18.20;;;9.60;;
36205;SDS011;22242;48.796;9.930;2022-10-14T00:50:21;21.70;;;9.95;;
36205;SDS011;22242;48.796;9.930;2022-10-14T00:52:50;12.57;;;9.60;;
36205;SDS011;22242;48.796;9.930;2022-10-14T00:55:17;17.15;;;9.52;;
36205;SDS011;22242;48.796;9.930;2022-10-14T00:57:44;15.02;;;9.43;;
36205;SDS011;22242;48.796;9.930;2022-10-14T01:00:12;13.55;;;9.52;;
36205;SDS011;22242;48.796;9.930;2022-10-14T01:02:42;15.18;;;9.02;;
36205;SDS011;22242;48.796;9.930;2022-10-14T01:05:13;14.02;;;8.70;;
36205;SDS011;22242;48.796;9.930;2022-10-14T01:07:48;14.68;;;8.75;;
36205;SDS011;22242;48.796;9.930;2022-10-14T01:10:27;15.23;;;8.10;;
36205;SDS011;22242;48.796;9.930;2022-10-14T01:13:05;11.32;;;7.00;;
36205;SDS011;22242;48.796;9.930;2022-10-14T01:15:40;14.98;;;7.47;;
36205;SDS011;22242;48.796;9.930;2022-10-14T01:18:17;12.40;;;7.63;;
36205;SDS011;22242;48.796;9.930;2022-10-14T01:21:00;13.38;;;6.60;;
36205;SDS011;22242;48.796;9.930;2022-10-14T01:27:04;11.95;;;6.35;;
36205;SDS011;22242;48.796;9.930;2022-10-14T01:32:41;11.77;;;7.03;;
36205;SDS011;22242;48.796;9.930;2022-10-14T01:35:17;11.00;;;6.57;;
36205;SDS011;22242;48.796;9.930;2022-10-14T01:37:51;9.40;;;6.40;;
36205;SDS011;22242;48.796;9.930;2022-10-14T01:40:22;12.02;;;6.75;;
36205;SDS011;22242;48.796;9.930;2022-10-14T01:42:54;12.10;;;7.28;;
36205;SDS011;22242;48.796;9.930;2022-10-14T01:45:24;10.45;;;6.60;;
36205;SDS011;22242;48.796;9.930;2022-10-14T01:47:54;13.85;;;6.85;;
36205;SDS011;22242;48.796;9.930;2022-10-14T01:50:26;10.55;;;6.88;;
36205;SDS011;22242;48.796;9.930;2022-10-14T01:52:57;8.82;;;6.30;;
36205;SDS011;22242;48.796;9.930;2022-10-14T01:55:29;11.23;;;6.35;;
36205;SDS011;22242;48.796;9.930;2022-10-14T01:57:59;15.02;;;7.20;;
36205;SDS011;22242;48.796;9.930;2022-10-14T02:00:28;12.25;;;5.88;;
36205;SDS011;22242;48.796;9.930;2022-10-14T02:03:00;10.20;;;5.82;;
36205;SDS011;22242;48.796;9.930;2022-10-14T02:05:27;12.45;;;6.65;;
36205;SDS011;22242;48.796;9.930;2022-10-14T02:08:02;11.73;;;6.30;;
36205;SDS011;22242;48.796;9.930;2022-10-14T02:13:28;8.82;;;6.30;;
36205;SDS011;22242;48.796;9.930;2022-10-14T02:16:07;11.20;;;7.18;;
36205;SDS011;22242;48.796;9.930;2022-10-14T02:18:45;12.55;;;6.78;;
36205;SDS011;22242;48.796;9.930;2022-10-14T02:21:16;10.98;;;6.70;;
36205;SDS011;22242;48.796;9.930;2022-10-14T02:23:48;14.07;;;7.53;;
36205;SDS011;22242;48.796;9.930;2022-10-14T02:26:22;12.77;;;6.95;;
36205;SDS011;22242;48.796;9.930;2022-10-14T02:28:50;12.20;;;7.00;;
36205;SDS011;22242;48.796;9.930;2022-10-14T02:31:19;12.50;;;7.28;;
36205;SDS011;22242;48.796;9.930;2022-10-14T02:33:49;15.27;;;7.07;;
36205;SDS011;22242;48.796;9.930;2022-10-14T02:36:20;13.02;;;6.85;;
36205;SDS011;22242;48.796;9.930;2022-10-14T02:38:50;11.57;;;6.72;;
36205;SDS011;22242;48.796;9.930;2022-10-14T02:41:18;12.32;;;6.78;;
36205;SDS011;22242;48.796;9.930;2022-10-14T02:43:49;11.82;;;6.97;;
36205;SDS011;22242;48.796;9.930;2022-10-14T02:46:19;10.60;;;6.40;;
36205;SDS011;22242;48.796;9.930;2022-10-14T02:48:47;13.80;;;6.80;;
36205;SDS011;22242;48.796;9.930;2022-10-14T02:51:14;9.68;;;6.38;;
36205;SDS011;22242;48.796;9.930;2022-10-14T02:53:42;10.38;;;7.45;;
36205;SDS011;22242;48.796;9.930;2022-10-14T02:56:09;14.13;;;6.75;;
36205;SDS011;22242;48.796;9.930;2022-10-14T02:58:38;9.82;;;6.43;;
36205;SDS011;22242;48.796;9.930;2022-10-14T03:01:05;10.43;;;6.20;;
36205;SDS011;22242;48.796;9.930;2022-10-14T03:03:34;9.95;;;6.53;;
36205;SDS011;22242;48.796;9.930;2022-10-14T03:06:01;12.30;;;7.18;;
36205;SDS011;22242;48.796;9.930;2022-10-14T03:08:28;8.65;;;6.05;;
36205;SDS011;22242;48.796;9.930;2022-10-14T03:10:57;9.05;;;6.07;;
36205;SDS011;22242;48.796;9.930;2022-10-14T03:13:24;14.68;;;6.82;;
36205;SDS011;22242;48.796;9.930;2022-10-14T03:15:51;9.57;;;6.30;;
36205;SDS011;22242;48.796;9.930;2022-10-14T03:18:18;13.32;;;6.28;;
36205;SDS011;22242;48.796;9.930;2022-10-14T03:20:48;13.25;;;7.25;;
36205;SDS011;22242;48.796;9.930;2022-10-14T03:23:20;10.25;;;6.35;;
36205;SDS011;22242;48.796;9.930;2022-10-14T03:25:49;8.85;;;6.30;;
36205;SDS011;22242;48.796;9.930;2022-10-14T03:28:24;13.20;;;6.93;;
36205;SDS011;22242;48.796;9.930;2022-10-14T03:30:59;14.80;;;7.18;;
36205;SDS011;22242;48.796;9.930;2022-10-14T03:33:41;12.27;;;6.72;;
36205;SDS011;22242;48.796;9.930;2022-10-14T03:36:12;11.75;;;7.15;;
36205;SDS011;22242;48.796;9.930;2022-10-14T03:38:44;10.80;;;6.95;;
36205;SDS011;22242;48.796;9.930;2022-10-14T03:41:20;14.45;;;7.78;;
36205;SDS011;22242;48.796;9.930;2022-10-14T03:43:47;11.23;;;7.50;;
36205;SDS011;22242;48.796;9.930;2022-10-14T03:46:15;20.15;;;10.68;;
36205;SDS011;22242;48.796;9.930;2022-10-14T03:48:42;12.25;;;9.45;;
36205;SDS011;22242;48.796;9.930;2022-10-14T03:51:08;13.30;;;9.52;;
36205;SDS011;22242;48.796;9.930;2022-10-14T03:53:37;18.98;;;11.32;;
36205;SDS011;22242;48.796;9.930;2022-10-14T03:56:05;18.75;;;11.05;;
36205;SDS011;22242;48.796;9.930;2022-10-14T03:58:33;21.90;;;11.55;;
36205;SDS011;22242;48.796;9.930;2022-10-14T04:01:05;19.02;;;11.65;;
36205;SDS011;22242;48.796;9.930;2022-10-14T04:03:49;21.92;;;12.05;;
36205;SDS011;22242;48.796;9.930;2022-10-14T04:06:16;22.10;;;12.82;;
36205;SDS011;22242;48.796;9.930;2022-10-14T04:08:45;20.38;;;11.60;;
36205;SDS011;22242;48.796;9.930;2022-10-14T04:11:20;22.42;;;12.75;;
36205;SDS011;22242;48.796;9.930;2022-10-14T04:13:49;25.40;;;13.65;;
36205;SDS011;22242;48.796;9.930;2022-10-14T04:16:16;21.67;;;13.20;;
36205;SDS011;22242;48.796;9.930;2022-10-14T04:19:00;21.58;;;12.55;;
36205;SDS011;22242;48.796;9.930;2022-10-14T04:21:29;13.05;;;9.18;;
36205;SDS011;22242;48.796;9.930;2022-10-14T04:23:58;11.70;;;8.60;;
36205;SDS011;22242;48.796;9.930;2022-10-14T04:26:37;10.18;;;6.80;;
36205;SDS011;22242;48.796;9.930;2022-10-14T04:29:10;17.48;;;7.40;;
36205;SDS011;22242;48.796;9.930;2022-10-14T04:31:50;13.80;;;7.72;;
36205;SDS011;22242;48.796;9.930;2022-10-14T04:34:17;14.40;;;7.00;;
36205;SDS011;22242;48.796;9.930;2022-10-14T04:36:44;14.50;;;7.50;;
36205;SDS011;22242;48.796;9.930;2022-10-14T04:39:33;10.77;;;6.22;;
36205;SDS011;22242;48.796;9.930;2022-10-14T04:42:00;13.35;;;7.13;;
36205;SDS011;22242;48.796;9.930;2022-10-14T04:44:27;13.45;;;6.80;;
36205;SDS011;22242;48.796;9.930;2022-10-14T04:46:54;11.68;;;6.47;;
36205;SDS011;22242;48.796;9.930;2022-10-14T04:49:23;11.23;;;6.90;;
36205;SDS011;22242;48.796;9.930;2022-10-14T04:52:00;12.15;;;6.70;;
36205;SDS011;22242;48.796;9.930;2022-10-14T04:54:51;10.02;;;7.28;;
36205;SDS011;22242;48.796;9.930;2022-10-14T04:57:30;8.85;;;6.45;;
36205;SDS011;22242;48.796;9.930;2022-10-14T04:59:57;12.82;;;6.35;;
36205;SDS011;22242;48.796;9.930;2022-10-14T05:02:43;12.73;;;6.38;;
36205;SDS011;22242;48.796;9.930;2022-10-14T05:05:12;13.20;;;6.60;;
36205;SDS011;22242;48.796;9.930;2022-10-14T05:07:41;12.15;;;6.50;;
36205;SDS011;22242;48.796;9.930;2022-10-14T05:10:24;9.20;;;6.53;;
36205;SDS011;22242;48.796;9.930;2022-10-14T05:12:52;11.35;;;6.85;;
36205;SDS011;22242;48.796;9.930;2022-10-14T05:15:19;11.90;;;7.38;;
36205;SDS011;22242;48.796;9.930;2022-10-14T05:17:59;12.45;;;7.53;;
36205;SDS011;22242;48.796;9.930;2022-10-14T05:20:41;12.38;;;7.00;;
36205;SDS011;22242;48.796;9.930;2022-10-14T05:23:08;11.73;;;7.60;;
36205;SDS011;22242;48.796;9.930;2022-10-14T05:25:36;12.35;;;7.30;;
36205;SDS011;22242;48.796;9.930;2022-10-14T05:28:03;12.10;;;7.18;;
36205;SDS011;22242;48.796;9.930;2022-10-14T05:30:31;10.15;;;6.88;;
36205;SDS011;22242;48.796;9.930;2022-10-14T05:32:58;19.40;;;8.57;;
36205;SDS011;22242;48.796;9.930;2022-10-14T05:35:25;17.30;;;8.40;;
36205;SDS011;22242;48.796;9.930;2022-10-14T05:37:55;13.15;;;7.13;;
36205;SDS011;22242;48.796;9.930;2022-10-14T05:40:22;12.57;;;8.20;;
36205;SDS011;22242;48.796;9.930;2022-10-14T05:42:52;16.90;;;8.18;;
36205;SDS011;22242;48.796;9.930;2022-10-14T05:45:20;13.15;;;7.90;;
36205;SDS011;22242;48.796;9.930;2022-10-14T05:47:50;13.82;;;8.13;;
36205;SDS011;22242;48.796;9.930;2022-10-14T05:50:18;11.93;;;8.10;;
36205;SDS011;22242;48.796;9.930;2022-10-14T05:52:46;13.98;;;7.97;;
36205;SDS011;22242;48.796;9.930;2022-10-14T05:55:21;14.23;;;8.10;;
36205;SDS011;22242;48.796;9.930;2022-10-14T05:57:55;12.27;;;7.45;;
36205;SDS011;22242;48.796;9.930;2022-10-14T06:00:27;13.40;;;7.43;;
36205;SDS011;22242;48.796;9.930;2022-10-14T06:03:01;11.75;;;7.88;;
36205;SDS011;22242;48.796;9.930;2022-10-14T06:05:28;14.15;;;7.10;;
36205;SDS011;22242;48.796;9.930;2022-10-14T06:07:55;16.42;;;7.53;;
36205;SDS011;22242;48.796;9.930;2022-10-14T06:10:21;11.10;;;7.05;;
36205;SDS011;22242;48.796;9.930;2022-10-14T06:12:48;9.52;;;6.78;;
36205;SDS011;22242;48.796;9.930;2022-10-14T06:15:16;12.27;;;6.90;;
36205;SDS011;22242;48.796;9.930;2022-10-14T06:17:43;12.57;;;7.13;;
36205;SDS011;22242;48.796;9.930;2022-10-14T06:20:10;11.50;;;6.28;;
36205;SDS011;22242;48.796;9.930;2022-10-14T06:22:37;11.70;;;6.80;;
36205;SDS011;22242;48.796;9.930;2022-10-14T06:25:04;13.18;;;7.72;;
36205;SDS011;22242;48.796;9.930;2022-10-14T06:27:31;12.32;;;8.10;;
36205;SDS011;22242;48.796;9.930;2022-10-14T06:29:58;10.57;;;7.55;;
36205;SDS011;22242;48.796;9.930;2022-10-14T06:32:26;13.57;;;7.63;;
36205;SDS011;22242;48.796;9.930;2022-10-14T06:34:53;12.57;;;6.80;;
36205;SDS011;22242;48.796;9.930;2022-10-14T06:37:20;12.52;;;7.32;;
36205;SDS011;22242;48.796;9.930;2022-10-14T06:39:47;10.88;;;6.40;;
36205;SDS011;22242;48.796;9.930;2022-10-14T06:42:13;10.23;;;5.72;;
36205;SDS011;22242;48.796;9.930;2022-10-14T06:44:40;11.93;;;6.47;;
36205;SDS011;22242;48.796;9.930;2022-10-14T06:47:07;12.13;;;7.03;;
36205;SDS011;22242;48.796;9.930;2022-10-14T06:49:35;10.85;;;6.82;;
36205;SDS011;22242;48.796;9.930;2022-10-14T06:52:02;15.77;;;7.55;;
36205;SDS011;22242;48.796;9.930;2022-10-14T06:54:29;11.82;;;7.13;;
36205;SDS011;22242;48.796;9.930;2022-10-14T06:56:56;10.95;;;7.45;;
36205;SDS011;22242;48.796;9.930;2022-10-14T06:59:23;12.98;;;7.32;;
36205;SDS011;22242;48.796;9.930;2022-10-14T07:01:52;12.85;;;7.28;;
36205;SDS011;22242;48.796;9.930;2022-10-14T07:04:19;13.20;;;7.70;;
36205;SDS011;22242;48.796;9.930;2022-10-14T07:06:47;10.48;;;6.47;;
36205;SDS011;22242;48.796;9.930;2022-10-14T07:09:15;10.77;;;7.00;;
36205;SDS011;22242;48.796;9.930;2022-10-14T07:11:42;12.15;;;7.20;;
36205;SDS011;22242;48.796;9.930;2022-10-14T07:14:09;13.13;;;7.68;;
36205;SDS011;22242;48.796;9.930;2022-10-14T07:16:37;12.63;;;7.22;;
36205;SDS011;22242;48.796;9.930;2022-10-14T07:19:04;11.40;;;7.00;;
36205;SDS011;22242;48.796;9.930;2022-10-14T07:21:30;11.57;;;6.88;;
36205;SDS011;22242;48.796;9.930;2022-10-14T07:23:58;16.13;;;8.20;;
36205;SDS011;22242;48.796;9.930;2022-10-14T07:26:25;26.50;;;10.02;;
36205;SDS011;22242;48.796;9.930;2022-10-14T07:28:54;14.48;;;9.50;;
36205;SDS011;22242;48.796;9.930;2022-10-14T07:31:21;19.02;;;10.73;;
36205;SDS011;22242;48.796;9.930;2022-10-14T07:33:48;17.33;;;10.35;;
36205;SDS011;22242;48.796;9.930;2022-10-14T07:36:16;20.70;;;10.65;;
36205;SDS011;22242;48.796;9.930;2022-10-14T07:38:44;18.23;;;10.23;;
36205;SDS011;22242;48.796;9.930;2022-10-14T07:41:14;15.15;;;9.48;;
36205;SDS011;22242;48.796;9.930;2022-10-14T07:43:43;15.77;;;9.52;;
36205;SDS011;22242;48.796;9.930;2022-10-14T07:46:11;13.95;;;9.10;;
36205;SDS011;22242;48.796;9.930;2022-10-14T07:48:38;18.85;;;10.07;;
36205;SDS011;22242;48.796;9.930;2022-10-14T07:51:05;12.40;;;8.48;;
36205;SDS011;22242;48.796;9.930;2022-10-14T07:53:33;11.90;;;8.18;;
36205;SDS011;22242;48.796;9.930;2022-10-14T07:56:01;14.30;;;8.35;;
36205;SDS011;22242;48.796;9.930;2022-10-14T07:58:29;14.00;;;7.28;;
36205;SDS011;22242;48.796;9.930;2022-10-14T08:00:56;15.23;;;7.70;;
36205;SDS011;22242;48.796;9.930;2022-10-14T08:03:23;13.98;;;7.13;;
36205;SDS011;22242;48.796;9.930;2022-10-14T08:05:56;12.95;;;6.50;;
36205;SDS011;22242;48.796;9.930;2022-10-14T08:08:24;10.68;;;6.78;;
36205;SDS011;22242;48.796;9.930;2022-10-14T08:10:58;11.57;;;5.75;;
36205;SDS011;22242;48.796;9.930;2022-10-14T08:13:26;8.07;;;5.40;;
36205;SDS011;22242;48.796;9.930;2022-10-14T08:15:54;8.20;;;5.32;;
36205;SDS011;22242;48.796;9.930;2022-10-14T08:18:21;9.50;;;4.80;;
36205;SDS011;22242;48.796;9.930;2022-10-14T08:20:48;8.40;;;4.72;;
36205;SDS011;22242;48.796;9.930;2022-10-14T08:23:15;10.10;;;4.72;;
36205;SDS011;22242;48.796;9.930;2022-10-14T08:25:42;6.97;;;4.05;;
36205;SDS011;22242;48.796;9.930;2022-10-14T08:28:09;7.45;;;4.53;;
36205;SDS011;22242;48.796;9.930;2022-10-14T08:30:36;7.57;;;4.65;;
36205;SDS011;22242;48.796;9.930;2022-10-14T08:33:04;5.97;;;4.63;;
36205;SDS011;22242;48.796;9.930;2022-10-14T08:35:31;11.60;;;4.47;;
36205;SDS011;22242;48.796;9.930;2022-10-14T08:37:58;4.55;;;3.65;;
36205;SDS011;22242;48.796;9.930;2022-10-14T08:40:26;6.40;;;4.70;;
36205;SDS011;22242;48.796;9.930;2022-10-14T08:42:57;6.78;;;4.10;;
36205;SDS011;22242;48.796;9.930;2022-10-14T08:45:30;6.97;;;4.40;;
36205;SDS011;22242;48.796;9.930;2022-10-14T08:48:00;6.35;;;3.78;;
36205;SDS011;22242;48.796;9.930;2022-10-14T08:50:37;5.88;;;3.90;;
36205;SDS011;22242;48.796;9.930;2022-10-14T08:53:09;4.20;;;3.20;;
36205;SDS011;22242;48.796;9.930;2022-10-14T08:55:39;8.45;;;3.05;;
36205;SDS011;22242;48.796;9.930;2022-10-14T08:58:10;4.57;;;2.90;;
36205;SDS011;22242;48.796;9.930;2022-10-14T09:00:40;7.07;;;3.88;;
36205;SDS011;22242;48.796;9.930;2022-10-14T09:03:15;6.68;;;3.83;;
36205;SDS011;22242;48.796;9.930;2022-10-14T09:05:47;4.97;;;3.45;;
36205;SDS011;22242;48.796;9.930;2022-10-14T09:08:26;5.03;;;3.33;;
36205;SDS011;22242;48.796;9.930;2022-10-14T09:10:57;12.23;;;5.40;;
36205;SDS011;22242;48.796;9.930;2022-10-14T09:13:26;8.35;;;5.70;;
36205;SDS011;22242;48.796;9.930;2022-10-14T09:15:57;9.45;;;3.75;;
36205;SDS011;22242;48.796;9.930;2022-10-14T09:18:31;8.38;;;3.08;;
36205;SDS011;22242;48.796;9.930;2022-10-14T09:21:02;5.45;;;3.25;;
36205;SDS011;22242;48.796;9.930;2022-10-14T09:23:46;4.93;;;3.10;;
36205;SDS011;22242;48.796;9.930;2022-10-14T09:26:19;3.92;;;2.90;;
36205;SDS011;22242;48.796;9.930;2022-10-14T09:28:45;4.03;;;2.85;;
36205;SDS011;22242;48.796;9.930;2022-10-14T09:31:18;3.92;;;2.60;;
36205;SDS011;22242;48.796;9.930;2022-10-14T09:33:46;4.70;;;2.42;;
36205;SDS011;22242;48.796;9.930;2022-10-14T09:36:14;5.47;;;2.80;;
36205;SDS011;22242;48.796;9.930;2022-10-14T09:38:43;4.72;;;2.80;;
36205;SDS011;22242;48.796;9.930;2022-10-14T09:41:11;4.40;;;2.42;;
36205;SDS011;22242;48.796;9.930;2022-10-14T09:46:39;3.90;;;2.60;;
36205;SDS011;22242;48.796;9.930;2022-10-14T09:49:12;8.00;;;2.70;;
36205;SDS011;22242;48.796;9.930;2022-10-14T09:51:42;6.70;;;2.63;;
36205;SDS011;22242;48.796;9.930;2022-10-14T09:54:17;5.05;;;2.58;;
36205;SDS011;22242;48.796;9.930;2022-10-14T09:56:48;2.83;;;2.60;;
36205;SDS011;22242;48.796;9.930;2022-10-14T09:59:16;8.35;;;2.55;;
36205;SDS011;22242;48.796;9.930;2022-10-14T10:01:47;5.95;;;2.55;;
36205;SDS011;22242;48.796;9.930;2022-10-14T10:04:30;6.07;;;2.58;;
36205;SDS011;22242;48.796;9.930;2022-10-14T10:07:01;7.10;;;2.58;;
36205;SDS011;22242;48.796;9.930;2022-10-14T10:09:30;4.05;;;2.88;;
36205;SDS011;22242;48.796;9.930;2022-10-14T10:11:58;7.80;;;2.75;;
36205;SDS011;22242;48.796;9.930;2022-10-14T10:14:26;4.70;;;2.80;;
36205;SDS011;22242;48.796;9.930;2022-10-14T10:17:14;9.88;;;2.65;;
36205;SDS011;22242;48.796;9.930;2022-10-14T10:19:45;8.23;;;2.97;;
36205;SDS011;22242;48.796;9.930;2022-10-14T10:22:18;3.47;;;2.63;;
36205;SDS011;22242;48.796;9.930;2022-10-14T10:24:49;5.68;;;2.90;;
36205;SDS011;22242;48.796;9.930;2022-10-14T10:27:22;5.68;;;3.10;;
36205;SDS011;22242;48.796;9.930;2022-10-14T10:32:21;4.00;;;2.80;;
36205;SDS011;22242;48.796;9.930;2022-10-14T10:37:47;6.05;;;2.67;;
36205;SDS011;22242;48.796;9.930;2022-10-14T10:40:31;5.03;;;2.95;;
36205;SDS011;22242;48.796;9.930;2022-10-14T10:43:16;4.55;;;2.70;;
36205;SDS011;22242;48.796;9.930;2022-10-14T10:45:59;4.47;;;2.67;;
36205;SDS011;22242;48.796;9.930;2022-10-14T10:48:35;4.63;;;2.97;;
36205;SDS011;22242;48.796;9.930;2022-10-14T10:51:11;7.22;;;2.88;;
36205;SDS011;22242;48.796;9.930;2022-10-14T10:53:54;4.78;;;2.78;;
36205;SDS011;22242;48.796;9.930;2022-10-14T10:56:33;4.97;;;2.83;;
36205;SDS011;22242;48.796;9.930;2022-10-14T10:59:21;3.40;;;2.72;;
36205;SDS011;22242;48.796;9.930;2022-10-14T11:02:00;8.55;;;2.60;;
36205;SDS011;22242;48.796;9.930;2022-10-14T11:04:46;5.40;;;2.63;;
36205;SDS011;22242;48.796;9.930;2022-10-14T11:07:22;3.53;;;2.30;;
36205;SDS011;22242;48.796;9.930;2022-10-14T11:10:13;3.15;;;2.08;;
36205;SDS011;22242;48.796;9.930;2022-10-14T11:13:05;3.10;;;1.88;;
36205;SDS011;22242;48.796;9.930;2022-10-14T11:15:43;4.97;;;2.30;;
36205;SDS011;22242;48.796;9.930;2022-10-14T11:18:18;5.15;;;2.25;;
36205;SDS011;22242;48.796;9.930;2022-10-14T11:20:56;6.63;;;2.00;;
36205;SDS011;22242;48.796;9.930;2022-10-14T11:23:35;5.57;;;2.10;;
36205;SDS011;22242;48.796;9.930;2022-10-14T11:26:13;6.13;;;2.20;;
36205;SDS011;22242;48.796;9.930;2022-10-14T11:28:52;5.03;;;2.40;;
36205;SDS011;22242;48.796;9.930;2022-10-14T11:31:37;6.07;;;2.00;;
36205;SDS011;22242;48.796;9.930;2022-10-14T11:34:21;3.28;;;1.70;;
36205;SDS011;22242;48.796;9.930;2022-10-14T11:37:06;3.92;;;2.03;;
36205;SDS011;22242;48.796;9.930;2022-10-14T11:39:46;2.95;;;1.60;;
36205;SDS011;22242;48.796;9.930;2022-10-14T11:42:19;8.00;;;2.08;;
36205;SDS011;22242;48.796;9.930;2022-10-14T11:45:00;4.47;;;2.13;;
36205;SDS011;22242;48.796;9.930;2022-10-14T11:47:36;5.03;;;2.05;;
36205;SDS011;22242;48.796;9.930;2022-10-14T11:50:11;5.13;;;2.08;;
36205;SDS011;22242;48.796;9.930;2022-10-14T11:52:41;4.97;;;2.25;;
36205;SDS011;22242;48.796;9.930;2022-10-14T11:55:16;4.82;;;2.35;;
36205;SDS011;22242;48.796;9.930;2022-10-14T11:57:48;4.57;;;2.78;;
36205;SDS011;22242;48.796;9.930;2022-10-14T12:00:18;4.38;;;2.22;;
36205;SDS011;22242;48.796;9.930;2022-10-14T12:03:08;4.13;;;2.10;;
36205;SDS011;22242;48.796;9.930;2022-10-14T12:05:40;4.40;;;1.83;;
36205;SDS011;22242;48.796;9.930;2022-10-14T12:08:15;4.85;;;2.20;;
36205;SDS011;22242;48.796;9.930;2022-10-14T12:10:48;4.47;;;2.00;;
36205;SDS011;22242;48.796;9.930;2022-10-14T12:13:21;4.95;;;2.00;;
36205;SDS011;22242;48.796;9.930;2022-10-14T12:15:52;3.42;;;2.10;;
36205;SDS011;22242;48.796;9.930;2022-10-14T12:18:20;3.00;;;1.83;;
36205;SDS011;22242;48.796;9.930;2022-10-14T12:20:48;3.17;;;2.08;;
36205;SDS011;22242;48.796;9.930;2022-10-14T12:23:24;6.28;;;1.75;;
36205;SDS011;22242;48.796;9.930;2022-10-14T12:26:00;3.33;;;2.08;;
36205;SDS011;22242;48.796;9.930;2022-10-14T12:28:33;5.75;;;2.10;;
36205;SDS011;22242;48.796;9.930;2022-10-14T12:34:25;2.78;;;2.03;;
36205;SDS011;22242;48.796;9.930;2022-10-14T12:36:56;4.80;;;2.08;;
36205;SDS011;22242;48.796;9.930;2022-10-14T12:39:33;3.33;;;1.80;;
36205;SDS011;22242;48.796;9.930;2022-10-14T12:44:40;6.68;;;1.80;;
36205;SDS011;22242;48.796;9.930;2022-10-14T12:47:16;8.85;;;1.98;;
36205;SDS011;22242;48.796;9.930;2022-10-14T12:52:16;7.78;;;2.38;;
